createdAt,value
2018-10-01T00:02:10.634Z,18.1
2018-10-01T00:07:08.503Z,18
2018-10-01T00:12:06.234Z,17.9
2018-10-01T00:17:03.298Z,18.5
2018-10-01T00:22:00.626Z,17.9
2018-10-01T00:26:58.386Z,18.4
2018-10-01T00:31:56.089Z,17.9
2018-10-01T00:36:53.660Z,18.4
2018-10-01T00:41:51.177Z,17.8
2018-10-01T00:46:49.002Z,18.3
2018-10-01T00:51:46.655Z,18.3
2018-10-01T00:56:44.030Z,17.7
2018-10-01T01:01:41.592Z,17.6
2018-10-01T01:06:39.314Z,18.2
2018-10-01T01:11:36.845Z,17.6
2018-10-01T01:16:34.721Z,17.6
2018-10-01T01:21:32.531Z,17.6
2018-10-01T01:26:30.380Z,17.5
2018-10-01T01:31:28.027Z,17.5
2018-10-01T01:36:25.719Z,17.5
2018-10-01T01:41:23.675Z,17.4
2018-10-01T01:46:21.468Z,17.4
2018-10-01T01:51:19.346Z,17.7
2018-10-01T01:56:16.716Z,17.3
2018-10-01T02:01:14.353Z,17.8
2018-10-01T02:06:12.184Z,17.3
2018-10-01T02:11:09.682Z,17.8
2018-10-01T02:16:07.344Z,17.2
2018-10-01T02:21:05.136Z,17.2
2018-10-01T02:26:02.731Z,17.2
2018-10-01T02:31:00.595Z,17.1
2018-10-01T02:35:58.352Z,17.1
2018-10-01T02:40:56.126Z,17
2018-10-01T02:45:53.769Z,17
2018-10-01T02:50:51.500Z,17
2018-10-01T02:55:49.116Z,17.5
2018-10-01T03:00:46.989Z,17.3
2018-10-01T03:05:44.880Z,17
2018-10-01T03:10:42.512Z,17.2
2018-10-01T03:15:40.306Z,17.4
2018-10-01T03:20:37.988Z,17.4
2018-10-01T03:25:35.736Z,17.4
2018-10-01T03:30:33.476Z,17.4
2018-10-01T03:35:31.318Z,16.7
2018-10-01T03:40:28.895Z,17.3
2018-10-01T03:45:26.765Z,17.3
2018-10-01T03:50:24.979Z,17.2
2018-10-01T03:55:22.482Z,17.2
2018-10-01T04:00:20.207Z,17.2
2018-10-01T04:05:17.974Z,16.6
2018-10-01T04:10:15.843Z,16.6
2018-10-01T04:15:13.696Z,17.1
2018-10-01T04:20:11.464Z,17.1
2018-10-01T04:25:09.611Z,17.1
2018-10-01T04:30:07.564Z,16.5
2018-10-01T04:35:05.017Z,17
2018-10-01T04:40:02.868Z,17
2018-10-01T04:45:00.766Z,17
2018-10-01T04:49:58.370Z,17
2018-10-01T04:54:56.405Z,16.4
2018-10-01T04:59:53.684Z,16.9
2018-10-01T05:04:51.211Z,16.4
2018-10-01T05:09:49.087Z,16.3
2018-10-01T05:14:47.063Z,16.8
2018-10-01T05:19:44.935Z,16.3
2018-10-01T05:24:42.772Z,16.8
2018-10-01T05:29:40.311Z,16.8
2018-10-01T05:34:38.005Z,16.8
2018-10-01T05:39:35.677Z,16.7
2018-10-01T05:44:33.612Z,16.7
2018-10-01T05:49:31.366Z,16.7
2018-10-01T05:54:29.341Z,16.7
2018-10-01T05:59:27.331Z,16.6
2018-10-01T06:04:25.213Z,16.7
2018-10-01T06:09:23.198Z,16.6
2018-10-01T06:14:20.755Z,16.6
2018-10-01T06:19:18.503Z,16.6
2018-10-01T06:24:16.466Z,16.6
2018-10-01T06:29:14.122Z,16.6
2018-10-01T06:34:11.699Z,16.1
2018-10-01T06:39:09.296Z,16.6
2018-10-01T06:44:07.317Z,16.6
2018-10-01T06:49:05.143Z,16.6
2018-10-01T06:54:02.703Z,16.5
2018-10-01T06:58:59.823Z,16.5
2018-10-01T07:03:57.425Z,16.5
2018-10-01T07:08:55.458Z,16.1
2018-10-01T07:13:53.221Z,16.6
2018-10-01T07:18:50.970Z,16.6
2018-10-01T07:23:48.737Z,16.6
2018-10-01T07:28:46.498Z,16.6
2018-10-01T07:33:44.160Z,16.6
2018-10-01T07:38:41.824Z,16.6
2018-10-01T07:43:39.546Z,16.6
2018-10-01T07:48:37.330Z,16.6
2018-10-01T07:53:35.101Z,16.6
2018-10-01T07:58:32.594Z,16.7
2018-10-01T08:03:30.332Z,16.7
2018-10-01T08:08:28.482Z,16.7
2018-10-01T08:13:26.229Z,16.7
2018-10-01T08:18:23.915Z,16.8
2018-10-01T08:23:21.664Z,16.8
2018-10-01T08:28:19.557Z,16.8
2018-10-01T08:33:17.409Z,16.9
2018-10-01T08:38:15.133Z,16.9
2018-10-01T08:43:13.096Z,16.9
2018-10-01T08:48:10.820Z,17
2018-10-01T08:53:08.669Z,17
2018-10-01T08:58:06.724Z,17
2018-10-01T09:03:04.450Z,17.1
2018-10-01T09:08:02.251Z,16.4
2018-10-01T09:13:00.416Z,16.5
2018-10-01T09:17:58.421Z,16.6
2018-10-01T09:22:56.396Z,17.2
2018-10-01T09:27:54.353Z,17.3
2018-10-01T09:32:52.239Z,17.3
2018-10-01T09:37:50.196Z,16.8
2018-10-01T09:42:48.093Z,17.4
2018-10-01T09:47:45.939Z,17.5
2018-10-01T09:52:43.493Z,16.9
2018-10-01T09:57:41.346Z,17
2018-10-01T10:02:39.432Z,17.6
2018-10-01T10:07:37.420Z,17.6
2018-10-01T10:12:35.173Z,17.7
2018-10-01T10:17:33.114Z,17.1
2018-10-01T10:22:31.141Z,17.8
2018-10-01T10:27:29.143Z,17.6
2018-10-01T10:32:27.014Z,17.9
2018-10-01T10:37:25.043Z,17.9
2018-10-01T10:42:22.832Z,18
2018-10-01T10:47:20.811Z,18
2018-10-01T10:52:18.488Z,17.5
2018-10-01T10:57:16.261Z,18.1
2018-10-01T11:02:13.770Z,18.2
2018-10-01T11:07:11.905Z,18.2
2018-10-01T11:12:09.376Z,18.3
2018-10-01T11:17:06.606Z,18.3
2018-10-01T11:22:04.612Z,18.4
2018-10-01T11:27:02.680Z,17.8
2018-10-01T11:32:00.382Z,18.5
2018-10-01T11:36:58.491Z,18
2018-10-01T11:41:56.216Z,18.6
2018-10-01T11:46:53.976Z,18.1
2018-10-01T11:51:51.872Z,18.7
2018-10-01T11:56:49.217Z,18.8
2018-10-01T12:01:46.911Z,18.8
2018-10-01T12:06:44.754Z,18.9
2018-10-01T12:11:42.825Z,18.9
2018-10-01T12:16:40.766Z,18.8
2018-10-01T12:21:38.784Z,18.3
2018-10-01T12:26:36.704Z,19.1
2018-10-01T12:31:34.473Z,19.2
2018-10-01T12:36:32.083Z,19.3
2018-10-01T12:41:29.991Z,19.3
2018-10-01T12:46:27.748Z,19.4
2018-10-01T12:51:25.776Z,19.5
2018-10-01T12:56:23.569Z,19.6
2018-10-01T13:01:21.375Z,19.6
2018-10-01T13:06:19.259Z,19.7
2018-10-01T13:11:16.997Z,19.8
2018-10-01T13:16:14.937Z,19.8
2018-10-01T13:21:13.160Z,19.9
2018-10-01T13:26:11.396Z,18.9
2018-10-01T13:31:09.513Z,20
2018-10-01T13:36:07.511Z,20.1
2018-10-01T13:41:05.197Z,20.1
2018-10-01T13:46:02.942Z,20.2
2018-10-01T13:51:00.847Z,20.3
2018-10-01T13:55:58.789Z,20.2
2018-10-01T14:00:56.656Z,19.6
2018-10-01T14:05:54.837Z,19.5
2018-10-01T14:10:53.020Z,20.5
2018-10-01T14:15:50.956Z,20.6
2018-10-01T14:20:48.882Z,20.6
2018-10-01T14:25:46.795Z,20.7
2018-10-01T14:30:44.751Z,20.5
2018-10-01T14:35:42.775Z,20.8
2018-10-01T14:40:40.671Z,20.8
2018-10-01T14:45:38.682Z,20.9
2018-10-01T14:50:36.559Z,20.9
2018-10-01T14:55:34.530Z,21
2018-10-01T15:00:32.595Z,21
2018-10-01T15:05:31.005Z,21.1
2018-10-01T15:10:28.628Z,21.1
2018-10-01T15:15:26.505Z,20.6
2018-10-01T15:20:24.529Z,21.2
2018-10-01T15:25:21.982Z,21.2
2018-10-01T15:30:19.679Z,21
2018-10-01T15:35:17.222Z,20.5
2018-10-01T15:40:15.149Z,21.3
2018-10-01T15:45:13.033Z,21.3
2018-10-01T15:50:10.893Z,21.3
2018-10-01T15:55:08.690Z,20.8
2018-10-01T16:00:06.596Z,21.4
2018-10-01T16:05:04.503Z,21.4
2018-10-01T16:10:02.321Z,21.4
2018-10-01T16:15:00.183Z,21.4
2018-10-01T16:19:58.009Z,21.4
2018-10-01T16:24:56.286Z,20.7
2018-10-01T16:29:54.059Z,21.4
2018-10-01T16:34:51.887Z,21.4
2018-10-01T16:39:49.716Z,21.4
2018-10-01T16:44:47.341Z,21.4
2018-10-01T16:49:45.233Z,21.4
2018-10-01T16:54:42.560Z,20.9
2018-10-01T16:59:40.498Z,21.4
2018-10-01T17:04:38.205Z,21.4
2018-10-01T17:09:35.982Z,21.3
2018-10-01T17:14:33.804Z,21.3
2018-10-01T17:19:31.882Z,21.3
2018-10-01T17:24:29.668Z,21.3
2018-10-01T17:29:27.767Z,20.5
2018-10-01T17:34:25.711Z,20.7
2018-10-01T17:39:23.697Z,21.2
2018-10-01T17:44:21.549Z,20.7
2018-10-01T17:49:19.583Z,21.2
2018-10-01T17:54:17.329Z,20.6
2018-10-01T17:59:15.381Z,21.1
2018-10-01T18:04:13.287Z,21.1
2018-10-01T18:09:11.255Z,21.1
2018-10-01T18:14:09.060Z,21.1
2018-10-01T18:19:06.824Z,21.1
2018-10-01T18:24:04.668Z,21
2018-10-01T18:29:02.539Z,20
2018-10-01T18:34:00.574Z,21
2018-10-01T18:38:58.457Z,20.9
2018-10-01T18:43:56.189Z,20.9
2018-10-01T18:48:53.991Z,20.3
2018-10-01T18:53:51.843Z,20.3
2018-10-01T18:58:49.869Z,20.8
2018-10-01T19:03:47.295Z,20.3
2018-10-01T19:08:45.077Z,20.8
2018-10-01T19:13:43.150Z,20.8
2018-10-01T19:18:41.016Z,20.7
2018-10-01T19:23:39.018Z,19.9
2018-10-01T19:28:36.145Z,20.2
2018-10-01T19:33:34.043Z,20.1
2018-10-01T19:38:32.087Z,20.6
2018-10-01T19:43:30.011Z,20
2018-10-01T19:48:28.224Z,19.8
2018-10-01T19:53:26.197Z,19.7
2018-10-01T19:58:23.858Z,19.9
2018-10-01T20:03:21.660Z,20.4
2018-10-01T20:08:19.596Z,20.4
2018-10-01T20:13:17.469Z,19.3
2018-10-01T20:18:15.337Z,20.4
2018-10-01T20:23:13.132Z,20.3
2018-10-01T20:28:11.113Z,20.3
2018-10-01T20:33:08.990Z,20.3
2018-10-01T20:38:06.872Z,19.7
2018-10-01T20:43:04.757Z,20.2
2018-10-01T20:48:02.685Z,20.1
2018-10-01T20:53:00.419Z,19.9
2018-10-01T20:57:58.493Z,19.3
2018-10-01T21:02:56.370Z,20
2018-10-01T21:07:54.260Z,20
2018-10-01T21:12:52.160Z,20
2018-10-01T21:17:49.831Z,19.9
2018-10-01T21:22:47.616Z,19.9
2018-10-01T21:27:45.294Z,19.9
2018-10-01T21:32:42.854Z,19.8
2018-10-01T21:37:40.977Z,19.8
2018-10-01T21:42:38.993Z,18.8
2018-10-01T21:47:36.869Z,19.7
2018-10-01T21:52:34.671Z,19.7
2018-10-01T21:57:32.602Z,19.6
2018-10-01T22:02:30.438Z,19.1
2018-10-01T22:07:28.177Z,19.6
2018-10-01T22:12:26.172Z,19.5
2018-10-01T22:17:24.133Z,18.4
2018-10-01T22:22:21.960Z,19.5
2018-10-01T22:27:20.094Z,18.7
2018-10-01T22:32:17.996Z,19.4
2018-10-01T22:37:15.865Z,18.9
2018-10-01T22:42:13.761Z,19.3
2018-10-01T22:47:11.450Z,19.3
2018-10-01T22:52:09.329Z,19.3
2018-10-01T22:57:07.217Z,19.2
2018-10-01T23:02:05.402Z,18.6
2018-10-01T23:07:03.263Z,19.1
2018-10-01T23:12:01.078Z,19.1
2018-10-01T23:16:58.811Z,19.1
2018-10-01T23:21:56.416Z,19.1
2018-10-01T23:26:54.190Z,19
2018-10-01T23:31:52.079Z,17.9
2018-10-01T23:36:50.033Z,19
2018-10-01T23:41:47.917Z,18.2
2018-10-01T23:46:45.360Z,18.1
2018-10-01T23:51:43.113Z,18.9
2018-10-01T23:56:40.954Z,18.8
